sensor_id;sensor_type;location;lat;lon;timestamp;pressure;altitude;pressure_sealevel;temperature;humidity
1832;BME280;1680;48.106;11.708;2023-05-23T00:01:45;95182.72;;;16.74;100.00
1832;BME280;1680;48.106;11.708;2023-05-23T00:04:12;95187.75;;;16.70;100.00
1832;BME280;1680;48.106;11.708;2023-05-23T00:06:43;95170.56;;;16.63;100.00
1832;BME280;1680;48.106;11.708;2023-05-23T00:09:12;95191.47;;;16.74;100.00
1832;BME280;1680;48.106;11.708;2023-05-23T00:11:40;95200.22;;;16.65;100.00
1832;BME280;1680;48.106;11.708;2023-05-23T00:14:11;95169.53;;;16.49;100.00
1832;BME280;1680;48.106;11.708;2023-05-23T00:16:39;95194.94;;;16.55;100.00
1832;BME280;1680;48.106;11.708;2023-05-23T00:19:08;95193.63;;;16.52;100.00
1832;BME280;1680;48.106;11.708;2023-05-23T00:21:36;95202.38;;;16.53;100.00
1832;BME280;1680;48.106;11.708;2023-05-23T00:24:04;95208.44;;;16.53;100.00
1832;BME280;1680;48.106;11.708;2023-05-23T00:26:31;95183.31;;;16.51;100.00
1832;BME280;1680;48.106;11.708;2023-05-23T00:28:59;95163.72;;;16.37;100.00
1832;BME280;1680;48.106;11.708;2023-05-23T00:31:28;95202.88;;;16.65;100.00
1832;BME280;1680;48.106;11.708;2023-05-23T00:33:56;95206.03;;;16.62;100.00
1832;BME280;1680;48.106;11.708;2023-05-23T00:36:23;95202.88;;;16.70;100.00
1832;BME280;1680;48.106;11.708;2023-05-23T00:38:50;95199.41;;;16.74;100.00
1832;BME280;1680;48.106;11.708;2023-05-23T00:41:18;95167.94;;;16.53;100.00
1832;BME280;1680;48.106;11.708;2023-05-23T00:43:46;95203.63;;;16.80;100.00
1832;BME280;1680;48.106;11.708;2023-05-23T00:46:13;95205.22;;;16.81;100.00
1832;BME280;1680;48.106;11.708;2023-05-23T00:48:42;95184.84;;;16.77;100.00
1832;BME280;1680;48.106;11.708;2023-05-23T00:51:09;95205.44;;;16.95;100.00
1832;BME280;1680;48.106;11.708;2023-05-23T00:53:37;95181.09;;;16.93;100.00
1832;BME280;1680;48.106;11.708;2023-05-23T00:56:05;95200.13;;;17.05;100.00
1832;BME280;1680;48.106;11.708;2023-05-23T00:58:32;95198.75;;;17.12;100.00
1832;BME280;1680;48.106;11.708;2023-05-23T01:00:59;95217.31;;;17.12;100.00
1832;BME280;1680;48.106;11.708;2023-05-23T01:03:27;95150.13;;;16.83;100.00
1832;BME280;1680;48.106;11.708;2023-05-23T01:05:55;95203.25;;;17.17;100.00
1832;BME280;1680;48.106;11.708;2023-05-23T01:08:23;95203.25;;;17.17;100.00
1832;BME280;1680;48.106;11.708;2023-05-23T01:10:51;95206.44;;;17.19;100.00
1832;BME280;1680;48.106;11.708;2023-05-23T01:13:24;95198.50;;;17.14;100.00
1832;BME280;1680;48.106;11.708;2023-05-23T01:15:57;95201.16;;;17.14;100.00
1832;BME280;1680;48.106;11.708;2023-05-23T01:18:33;95176.78;;;17.07;100.00
1832;BME280;1680;48.106;11.708;2023-05-23T01:21:06;95178.41;;;17.03;100.00
1832;BME280;1680;48.106;11.708;2023-05-23T01:24:02;95211.75;;;17.14;100.00
1832;BME280;1680;48.106;11.708;2023-05-23T01:26:32;95211.72;;;17.19;100.00
1832;BME280;1680;48.106;11.708;2023-05-23T01:29:08;95218.38;;;17.16;100.00
1832;BME280;1680;48.106;11.708;2023-05-23T01:31:42;95215.44;;;17.23;100.00
1832;BME280;1680;48.106;11.708;2023-05-23T01:34:11;95214.94;;;17.11;100.00
1832;BME280;1680;48.106;11.708;2023-05-23T01:36:40;95204.09;;;17.07;100.00
1832;BME280;1680;48.106;11.708;2023-05-23T01:39:08;95192.69;;;17.02;100.00
1832;BME280;1680;48.106;11.708;2023-05-23T01:41:36;95215.97;;;17.20;100.00
1832;BME280;1680;48.106;11.708;2023-05-23T01:44:06;95215.72;;;17.11;100.00
1832;BME280;1680;48.106;11.708;2023-05-23T01:46:34;95172.06;;;16.94;100.00
1832;BME280;1680;48.106;11.708;2023-05-23T01:49:06;95212.00;;;17.22;100.00
1832;BME280;1680;48.106;11.708;2023-05-23T01:51:34;95218.88;;;17.23;100.00
1832;BME280;1680;48.106;11.708;2023-05-23T01:54:02;95225.50;;;17.21;100.00
1832;BME280;1680;48.106;11.708;2023-05-23T01:56:30;95214.91;;;17.21;100.00
1832;BME280;1680;48.106;11.708;2023-05-23T01:58:57;95235.56;;;17.19;100.00
1832;BME280;1680;48.106;11.708;2023-05-23T02:01:27;95215.19;;;17.14;100.00
1832;BME280;1680;48.106;11.708;2023-05-23T02:03:55;95222.06;;;17.20;100.00
1832;BME280;1680;48.106;11.708;2023-05-23T02:06:22;95231.56;;;17.26;100.00
1832;BME280;1680;48.106;11.708;2023-05-23T02:08:50;95146.16;;;16.71;100.00
1832;BME280;1680;48.106;11.708;2023-05-23T02:11:17;95243.53;;;17.29;100.00
1832;BME280;1680;48.106;11.708;2023-05-23T02:13:44;95128.78;;;16.50;100.00
1832;BME280;1680;48.106;11.708;2023-05-23T02:16:12;95242.16;;;17.41;100.00
1832;BME280;1680;48.106;11.708;2023-05-23T02:18:41;95241.94;;;17.33;100.00
1832;BME280;1680;48.106;11.708;2023-05-23T02:21:10;95253.09;;;17.30;100.00
1832;BME280;1680;48.106;11.708;2023-05-23T02:23:37;95252.00;;;17.21;100.00
1832;BME280;1680;48.106;11.708;2023-05-23T02:26:05;95236.94;;;17.11;100.00
1832;BME280;1680;48.106;11.708;2023-05-23T02:28:32;95248.84;;;17.19;100.00
1832;BME280;1680;48.106;11.708;2023-05-23T02:31:00;95257.88;;;17.08;100.00
1832;BME280;1680;48.106;11.708;2023-05-23T02:33:27;95235.91;;;16.97;100.00
1832;BME280;1680;48.106;11.708;2023-05-23T02:35:56;95245.16;;;17.10;100.00
1832;BME280;1680;48.106;11.708;2023-05-23T02:38:23;95243.84;;;17.02;100.00
1832;BME280;1680;48.106;11.708;2023-05-23T02:40:51;95252.63;;;16.98;100.00
1832;BME280;1680;48.106;11.708;2023-05-23T02:43:21;95204.47;;;16.61;100.00
1832;BME280;1680;48.106;11.708;2023-05-23T02:45:48;95240.72;;;16.70;100.00
1832;BME280;1680;48.106;11.708;2023-05-23T02:48:15;95266.38;;;16.90;100.00
1832;BME280;1680;48.106;11.708;2023-05-23T02:50:43;95252.91;;;16.71;100.00
1832;BME280;1680;48.106;11.708;2023-05-23T02:53:12;95245.50;;;16.73;100.00
1832;BME280;1680;48.106;11.708;2023-05-23T02:55:39;95259.00;;;16.82;100.00
1832;BME280;1680;48.106;11.708;2023-05-23T02:58:07;95271.44;;;16.81;100.00
1832;BME280;1680;48.106;11.708;2023-05-23T03:00:35;95284.16;;;16.84;100.00
1832;BME280;1680;48.106;11.708;2023-05-23T03:03:02;95251.06;;;16.57;100.00
1832;BME280;1680;48.106;11.708;2023-05-23T03:05:30;95241.03;;;16.54;100.00
1832;BME280;1680;48.106;11.708;2023-05-23T03:07:57;95176.94;;;16.12;100.00
1832;BME280;1680;48.106;11.708;2023-05-23T03:10:26;95248.41;;;16.57;100.00
1832;BME280;1680;48.106;11.708;2023-05-23T03:12:53;95247.09;;;16.50;100.00
1832;BME280;1680;48.106;11.708;2023-05-23T03:15:24;95269.59;;;16.52;100.00
1832;BME280;1680;48.106;11.708;2023-05-23T03:17:51;95262.97;;;16.54;100.00
1832;BME280;1680;48.106;11.708;2023-05-23T03:20:21;95252.66;;;16.48;100.00
1832;BME280;1680;48.106;11.708;2023-05-23T03:22:48;95249.75;;;16.40;100.00
1832;BME280;1680;48.106;11.708;2023-05-23T03:25:16;95263.78;;;16.45;100.00
1832;BME280;1680;48.106;11.708;2023-05-23T03:27:44;95259.81;;;16.43;100.00
1832;BME280;1680;48.106;11.708;2023-05-23T03:30:12;95254.53;;;16.33;100.00
1832;BME280;1680;48.106;11.708;2023-05-23T03:32:39;95267.47;;;16.34;100.00
1832;BME280;1680;48.106;11.708;2023-05-23T03:35:07;95209.19;;;15.99;100.00
1832;BME280;1680;48.106;11.708;2023-05-23T03:37:35;95268.00;;;16.41;100.00
1832;BME280;1680;48.106;11.708;2023-05-23T03:40:03;95266.94;;;16.42;100.00
1832;BME280;1680;48.106;11.708;2023-05-23T03:42:31;95254.78;;;16.31;100.00
1832;BME280;1680;48.106;11.708;2023-05-23T03:45:01;95276.47;;;16.48;100.00
1832;BME280;1680;48.106;11.708;2023-05-23T03:47:29;95277.00;;;16.50;100.00
1832;BME280;1680;48.106;11.708;2023-05-23T03:49:56;95271.47;;;16.47;100.00
1832;BME280;1680;48.106;11.708;2023-05-23T03:52:23;95273.28;;;16.41;100.00
1832;BME280;1680;48.106;11.708;2023-05-23T03:54:50;95272.25;;;16.47;100.00
1832;BME280;1680;48.106;11.708;2023-05-23T03:57:18;95272.25;;;16.47;100.00
1832;BME280;1680;48.106;11.708;2023-05-23T03:59:45;95272.50;;;16.51;100.00
1832;BME280;1680;48.106;11.708;2023-05-23T04:02:13;95279.66;;;16.50;100.00
1832;BME280;1680;48.106;11.708;2023-05-23T04:04:41;95277.53;;;16.47;100.00
1832;BME280;1680;48.106;11.708;2023-05-23T04:07:08;95284.97;;;16.55;100.00
1832;BME280;1680;48.106;11.708;2023-05-23T04:09:35;95262.19;;;16.44;100.00
1832;BME280;1680;48.106;11.708;2023-05-23T04:12:03;95238.91;;;16.36;100.00
1832;BME280;1680;48.106;11.708;2023-05-23T04:14:33;95286.28;;;16.62;100.00
1832;BME280;1680;48.106;11.708;2023-05-23T04:17:00;95298.47;;;16.73;100.00
1832;BME280;1680;48.106;11.708;2023-05-23T04:19:29;95296.06;;;16.77;100.00
1832;BME280;1680;48.106;11.708;2023-05-23T04:21:56;95288.66;;;16.74;100.00
1832;BME280;1680;48.106;11.708;2023-05-23T04:24:23;95296.34;;;16.85;100.00
1832;BME280;1680;48.106;11.708;2023-05-23T04:26:50;95292.09;;;16.89;100.00
1832;BME280;1680;48.106;11.708;2023-05-23T04:29:20;95280.97;;;16.82;100.00
1832;BME280;1680;48.106;11.708;2023-05-23T04:31:49;95296.31;;;16.95;100.00
1832;BME280;1680;48.106;11.708;2023-05-23T04:34:16;95305.59;;;16.88;100.00
1832;BME280;1680;48.106;11.708;2023-05-23T04:36:48;95315.91;;;16.94;100.00
1832;BME280;1680;48.106;11.708;2023-05-23T04:39:15;95315.63;;;17.01;100.00
1832;BME280;1680;48.106;11.708;2023-05-23T04:41:42;95317.75;;;17.04;100.00
1832;BME280;1680;48.106;11.708;2023-05-23T04:44:10;95311.94;;;16.92;100.00
1832;BME280;1680;48.106;11.708;2023-05-23T04:46:38;95316.44;;;17.01;100.00
1832;BME280;1680;48.106;11.708;2023-05-23T04:49:06;95315.13;;;16.94;100.00
1832;BME280;1680;48.106;11.708;2023-05-23T04:51:34;95327.31;;;17.10;100.00
1832;BME280;1680;48.106;11.708;2023-05-23T04:54:04;95314.06;;;17.15;100.00
1832;BME280;1680;48.106;11.708;2023-05-23T04:56:34;95321.19;;;17.34;100.00
1832;BME280;1680;48.106;11.708;2023-05-23T04:59:01;95318.81;;;17.33;100.00
1832;BME280;1680;48.106;11.708;2023-05-23T05:01:29;95317.22;;;17.42;100.00
1832;BME280;1680;48.106;11.708;2023-05-23T05:03:56;95307.66;;;17.41;100.00
1832;BME280;1680;48.106;11.708;2023-05-23T05:06:24;95293.09;;;17.33;100.00
1832;BME280;1680;48.106;11.708;2023-05-23T05:08:53;95317.16;;;17.56;100.00
1832;BME280;1680;48.106;11.708;2023-05-23T05:11:21;95310.81;;;17.52;100.00
1832;BME280;1680;48.106;11.708;2023-05-23T05:13:48;95321.13;;;17.59;100.00
1832;BME280;1680;48.106;11.708;2023-05-23T05:16:16;95318.19;;;17.65;100.00
1832;BME280;1680;48.106;11.708;2023-05-23T05:18:43;95325.38;;;17.60;100.00
1832;BME280;1680;48.106;11.708;2023-05-23T05:21:10;95330.66;;;17.60;100.00
1832;BME280;1680;48.106;11.708;2023-05-23T05:23:37;95318.19;;;17.60;100.00
1832;BME280;1680;48.106;11.708;2023-05-23T05:26:05;95326.13;;;17.60;100.00
1832;BME280;1680;48.106;11.708;2023-05-23T05:28:33;95327.72;;;17.71;100.00
1832;BME280;1680;48.106;11.708;2023-05-23T05:31:01;95325.84;;;17.72;100.00
1832;BME280;1680;48.106;11.708;2023-05-23T05:33:29;95328.72;;;17.90;100.00
1832;BME280;1680;48.106;11.708;2023-05-23T05:36:00;95330.06;;;17.83;100.00
1832;BME280;1680;48.106;11.708;2023-05-23T05:38:27;95326.38;;;17.74;100.00
1832;BME280;1680;48.106;11.708;2023-05-23T05:40:55;95321.88;;;17.74;100.00
1832;BME280;1680;48.106;11.708;2023-05-23T05:43:22;95318.69;;;17.72;100.00
1832;BME280;1680;48.106;11.708;2023-05-23T05:45:50;95313.88;;;17.79;100.00
1832;BME280;1680;48.106;11.708;2023-05-23T05:48:18;95322.59;;;17.90;100.00
1832;BME280;1680;48.106;11.708;2023-05-23T05:50:45;95315.16;;;17.97;100.00
1832;BME280;1680;48.106;11.708;2023-05-23T05:53:12;95312.97;;;17.99;100.00
1832;BME280;1680;48.106;11.708;2023-05-23T05:55:40;95316.66;;;18.13;100.00
1832;BME280;1680;48.106;11.708;2023-05-23T05:58:08;95284.59;;;18.04;100.00
1832;BME280;1680;48.106;11.708;2023-05-23T06:00:35;95321.38;;;18.21;100.00
1832;BME280;1680;48.106;11.708;2023-05-23T06:03:07;95309.72;;;18.17;100.00
1832;BME280;1680;48.106;11.708;2023-05-23T06:05:36;95309.44;;;18.23;100.00
1832;BME280;1680;48.106;11.708;2023-05-23T06:08:04;95328.56;;;18.20;100.00
1832;BME280;1680;48.106;11.708;2023-05-23T06:10:31;95338.63;;;18.23;100.00
1832;BME280;1680;48.106;11.708;2023-05-23T06:12:58;95342.03;;;18.34;100.00
1832;BME280;1680;48.106;11.708;2023-05-23T06:15:25;95345.53;;;18.29;100.00
1832;BME280;1680;48.106;11.708;2023-05-23T06:17:53;95301.03;;;18.01;100.00
1832;BME280;1680;48.106;11.708;2023-05-23T06:20:21;95338.81;;;18.42;100.00
1832;BME280;1680;48.106;11.708;2023-05-23T06:22:49;95336.00;;;18.61;100.00
1832;BME280;1680;48.106;11.708;2023-05-23T06:25:16;95323.03;;;18.55;100.00
1832;BME280;1680;48.106;11.708;2023-05-23T06:27:43;95345.09;;;18.94;100.00
1832;BME280;1680;48.106;11.708;2023-05-23T06:30:12;95340.72;;;19.08;100.00
1832;BME280;1680;48.106;11.708;2023-05-23T06:32:40;95341.72;;;19.17;100.00
1832;BME280;1680;48.106;11.708;2023-05-23T06:35:08;95342.78;;;19.11;100.00
1832;BME280;1680;48.106;11.708;2023-05-23T06:37:37;95340.50;;;19.33;100.00
1832;BME280;1680;48.106;11.708;2023-05-23T06:40:10;95326.13;;;19.34;99.94
1832;BME280;1680;48.106;11.708;2023-05-23T06:42:38;95342.38;;;19.55;98.71
1832;BME280;1680;48.106;11.708;2023-05-23T06:45:06;95345.50;;;19.62;99.07
1832;BME280;1680;48.106;11.708;2023-05-23T06:47:34;95350.19;;;19.70;98.56
1832;BME280;1680;48.106;11.708;2023-05-23T06:50:01;95348.38;;;19.66;98.08
1832;BME280;1680;48.106;11.708;2023-05-23T06:52:28;95342.97;;;19.76;99.33
1832;BME280;1680;48.106;11.708;2023-05-23T06:54:57;95345.56;;;19.81;97.45
1832;BME280;1680;48.106;11.708;2023-05-23T06:57:24;95345.28;;;19.82;97.68
1832;BME280;1680;48.106;11.708;2023-05-23T06:59:51;95344.69;;;19.85;96.45
1832;BME280;1680;48.106;11.708;2023-05-23T07:02:19;95364.78;;;20.01;94.99
1832;BME280;1680;48.106;11.708;2023-05-23T07:04:46;95365.19;;;20.13;95.53
1832;BME280;1680;48.106;11.708;2023-05-23T07:07:13;95367.16;;;20.26;93.77
1832;BME280;1680;48.106;11.708;2023-05-23T07:09:40;95351.94;;;20.27;91.30
1832;BME280;1680;48.106;11.708;2023-05-23T07:12:09;95357.16;;;20.55;91.21
1832;BME280;1680;48.106;11.708;2023-05-23T07:14:36;95359.25;;;20.76;91.62
1832;BME280;1680;48.106;11.708;2023-05-23T07:17:04;95358.84;;;20.88;88.65
1832;BME280;1680;48.106;11.708;2023-05-23T07:19:32;95363.72;;;20.81;90.02
1832;BME280;1680;48.106;11.708;2023-05-23T07:21:59;95355.16;;;20.65;89.43
1832;BME280;1680;48.106;11.708;2023-05-23T07:24:26;95368.19;;;20.67;89.08
1832;BME280;1680;48.106;11.708;2023-05-23T07:26:54;95366.31;;;20.67;89.93
1832;BME280;1680;48.106;11.708;2023-05-23T07:29:22;95353.84;;;20.26;90.96
1832;BME280;1680;48.106;11.708;2023-05-23T07:31:50;95310.84;;;20.14;92.02
1832;BME280;1680;48.106;11.708;2023-05-23T07:34:18;95375.31;;;20.53;91.15
1832;BME280;1680;48.106;11.708;2023-05-23T07:36:45;95368.84;;;20.59;90.57
1832;BME280;1680;48.106;11.708;2023-05-23T07:39:14;95376.59;;;20.55;91.80
1832;BME280;1680;48.106;11.708;2023-05-23T07:41:47;95375.25;;;20.58;91.12
1832;BME280;1680;48.106;11.708;2023-05-23T07:44:15;95361.97;;;20.53;90.85
1832;BME280;1680;48.106;11.708;2023-05-23T07:46:43;95376.38;;;20.52;90.20
1832;BME280;1680;48.106;11.708;2023-05-23T07:49:11;95381.13;;;20.55;89.72
1832;BME280;1680;48.106;11.708;2023-05-23T07:51:38;95368.22;;;20.44;91.60
1832;BME280;1680;48.106;11.708;2023-05-23T07:54:06;95358.44;;;20.57;90.75
1832;BME280;1680;48.106;11.708;2023-05-23T07:56:33;95371.56;;;20.72;89.34
1832;BME280;1680;48.106;11.708;2023-05-23T07:59:02;95373.34;;;20.77;89.94
1832;BME280;1680;48.106;11.708;2023-05-23T08:01:29;95372.91;;;21.07;89.58
1832;BME280;1680;48.106;11.708;2023-05-23T08:03:58;95379.94;;;21.03;89.60
1832;BME280;1680;48.106;11.708;2023-05-23T08:06:26;95363.84;;;21.08;88.69
1832;BME280;1680;48.106;11.708;2023-05-23T08:08:53;95372.13;;;21.06;88.61
1832;BME280;1680;48.106;11.708;2023-05-23T08:11:20;95376.41;;;21.21;88.19
1832;BME280;1680;48.106;11.708;2023-05-23T08:13:47;95378.69;;;21.14;87.03
1832;BME280;1680;48.106;11.708;2023-05-23T08:16:15;95356.91;;;21.07;87.05
1832;BME280;1680;48.106;11.708;2023-05-23T08:18:42;95382.88;;;21.20;86.58
1832;BME280;1680;48.106;11.708;2023-05-23T08:21:10;95373.78;;;21.02;87.49
1832;BME280;1680;48.106;11.708;2023-05-23T08:23:38;95389.66;;;20.94;87.62
1832;BME280;1680;48.106;11.708;2023-05-23T08:26:05;95402.75;;;21.09;87.80
1832;BME280;1680;48.106;11.708;2023-05-23T08:28:32;95399.06;;;21.23;85.18
1832;BME280;1680;48.106;11.708;2023-05-23T08:31:00;95383.44;;;21.17;86.45
1832;BME280;1680;48.106;11.708;2023-05-23T08:33:28;95270.47;;;20.76;84.26
1832;BME280;1680;48.106;11.708;2023-05-23T08:35:56;95388.09;;;21.56;84.68
1832;BME280;1680;48.106;11.708;2023-05-23T08:38:24;95401.16;;;21.58;83.23
1832;BME280;1680;48.106;11.708;2023-05-23T08:40:52;95397.56;;;21.49;84.57
1832;BME280;1680;48.106;11.708;2023-05-23T08:43:22;95400.69;;;21.38;85.34
1832;BME280;1680;48.106;11.708;2023-05-23T08:45:50;95401.56;;;21.33;86.44
1832;BME280;1680;48.106;11.708;2023-05-23T08:48:18;95392.28;;;21.31;84.97
1832;BME280;1680;48.106;11.708;2023-05-23T08:50:47;95373.09;;;20.97;85.78
1832;BME280;1680;48.106;11.708;2023-05-23T08:53:15;95383.88;;;21.05;87.67
1832;BME280;1680;48.106;11.708;2023-05-23T08:55:46;95384.34;;;21.26;85.42
1832;BME280;1680;48.106;11.708;2023-05-23T08:58:16;95372.34;;;21.10;87.70
1832;BME280;1680;48.106;11.708;2023-05-23T09:00:44;95415.09;;;21.37;84.50
1832;BME280;1680;48.106;11.708;2023-05-23T09:03:12;95369.03;;;21.18;85.75
1832;BME280;1680;48.106;11.708;2023-05-23T09:05:41;95397.19;;;21.24;84.09
1832;BME280;1680;48.106;11.708;2023-05-23T09:08:08;95404.03;;;21.30;85.53
1832;BME280;1680;48.106;11.708;2023-05-23T09:10:36;95385.69;;;20.91;85.34
1832;BME280;1680;48.106;11.708;2023-05-23T09:13:05;95411.41;;;21.19;85.74
1832;BME280;1680;48.106;11.708;2023-05-23T09:15:34;95403.56;;;21.09;86.17
1832;BME280;1680;48.106;11.708;2023-05-23T09:18:02;95370.19;;;21.12;83.71
1832;BME280;1680;48.106;11.708;2023-05-23T09:20:30;95396.78;;;21.49;84.74
1832;BME280;1680;48.106;11.708;2023-05-23T09:22:57;95419.72;;;21.50;82.58
1832;BME280;1680;48.106;11.708;2023-05-23T09:25:24;95410.59;;;21.50;84.05
1832;BME280;1680;48.106;11.708;2023-05-23T09:27:52;95368.06;;;21.27;82.70
1832;BME280;1680;48.106;11.708;2023-05-23T09:30:22;95385.94;;;21.58;81.71
1832;BME280;1680;48.106;11.708;2023-05-23T09:32:57;95411.09;;;21.71;82.05
1832;BME280;1680;48.106;11.708;2023-05-23T09:35:27;95402.59;;;21.50;82.81
1832;BME280;1680;48.106;11.708;2023-05-23T09:37:56;95368.53;;;21.16;82.50
1832;BME280;1680;48.106;11.708;2023-05-23T09:40:28;95424.19;;;21.36;82.28
1832;BME280;1680;48.106;11.708;2023-05-23T09:43:00;95422.63;;;21.66;81.12
1832;BME280;1680;48.106;11.708;2023-05-23T09:45:30;95412.22;;;21.97;79.98
1832;BME280;1680;48.106;11.708;2023-05-23T09:47:58;95388.53;;;21.77;80.21
1832;BME280;1680;48.106;11.708;2023-05-23T09:50:30;95421.81;;;21.98;79.82
1832;BME280;1680;48.106;11.708;2023-05-23T09:52:59;95415.50;;;22.07;79.89
1832;BME280;1680;48.106;11.708;2023-05-23T09:55:27;95417.78;;;22.14;81.33
1832;BME280;1680;48.106;11.708;2023-05-23T09:57:54;95411.91;;;21.98;80.72
1832;BME280;1680;48.106;11.708;2023-05-23T10:00:23;95418.44;;;21.92;80.82
1832;BME280;1680;48.106;11.708;2023-05-23T10:02:58;95423.38;;;21.85;80.95
1832;BME280;1680;48.106;11.708;2023-05-23T10:05:33;95416.22;;;21.67;81.18
1832;BME280;1680;48.106;11.708;2023-05-23T10:08:04;95421.91;;;21.79;81.43
1832;BME280;1680;48.106;11.708;2023-05-23T10:13:25;95414.06;;;21.96;82.27
1832;BME280;1680;48.106;11.708;2023-05-23T10:15:58;95363.63;;;21.81;80.39
1832;BME280;1680;48.106;11.708;2023-05-23T10:18:34;95411.94;;;22.52;78.25
1832;BME280;1680;48.106;11.708;2023-05-23T10:21:09;95409.31;;;22.74;76.83
1832;BME280;1680;48.106;11.708;2023-05-23T10:23:38;95401.63;;;22.59;76.29
1832;BME280;1680;48.106;11.708;2023-05-23T10:26:06;95397.00;;;22.38;76.11
1832;BME280;1680;48.106;11.708;2023-05-23T10:28:35;95395.09;;;22.11;78.31
1832;BME280;1680;48.106;11.708;2023-05-23T10:31:02;95406.69;;;22.47;77.35
1832;BME280;1680;48.106;11.708;2023-05-23T10:33:34;95408.53;;;22.73;76.14
1832;BME280;1680;48.106;11.708;2023-05-23T10:36:08;95389.25;;;22.63;74.52
1832;BME280;1680;48.106;11.708;2023-05-23T10:38:40;95409.22;;;22.79;75.54
1832;BME280;1680;48.106;11.708;2023-05-23T10:41:15;95393.13;;;22.92;74.49
1832;BME280;1680;48.106;11.708;2023-05-23T10:43:49;95401.53;;;22.99;75.33
1832;BME280;1680;48.106;11.708;2023-05-23T10:46:19;95391.16;;;22.84;75.31
1832;BME280;1680;48.106;11.708;2023-05-23T10:48:53;95409.06;;;23.11;75.83
1832;BME280;1680;48.106;11.708;2023-05-23T10:51:22;95411.25;;;23.09;73.74
1832;BME280;1680;48.106;11.708;2023-05-23T10:53:52;95411.31;;;23.04;72.40
1832;BME280;1680;48.106;11.708;2023-05-23T10:56:22;95409.88;;;22.98;72.46
1832;BME280;1680;48.106;11.708;2023-05-23T10:58:51;95415.41;;;22.88;73.68
1832;BME280;1680;48.106;11.708;2023-05-23T11:01:19;95365.66;;;22.65;74.29
1832;BME280;1680;48.106;11.708;2023-05-23T11:03:51;95371.16;;;22.47;73.71
1832;BME280;1680;48.106;11.708;2023-05-23T11:06:30;95409.66;;;22.32;74.72
1832;BME280;1680;48.106;11.708;2023-05-23T11:09:05;95394.41;;;21.92;76.98
1832;BME280;1680;48.106;11.708;2023-05-23T11:11:52;95408.16;;;21.99;77.41
1832;BME280;1680;48.106;11.708;2023-05-23T11:14:30;95370.75;;;21.72;78.06
1832;BME280;1680;48.106;11.708;2023-05-23T11:16:58;95408.34;;;22.16;76.80
1832;BME280;1680;48.106;11.708;2023-05-23T11:19:27;95410.94;;;22.21;79.40
1832;BME280;1680;48.106;11.708;2023-05-23T11:21:57;95305.78;;;21.90;77.16
1832;BME280;1680;48.106;11.708;2023-05-23T11:24:46;95390.03;;;22.63;75.48
1832;BME280;1680;48.106;11.708;2023-05-23T11:27:15;95388.06;;;22.91;74.32
1832;BME280;1680;48.106;11.708;2023-05-23T11:29:54;95386.13;;;22.83;74.82
1832;BME280;1680;48.106;11.708;2023-05-23T11:32:22;95373.91;;;22.90;69.09
1832;BME280;1680;48.106;11.708;2023-05-23T11:34:51;95366.91;;;22.81;68.60
1832;BME280;1680;48.106;11.708;2023-05-23T11:37:19;95367.06;;;22.98;69.05
1832;BME280;1680;48.106;11.708;2023-05-23T11:39:48;95355.53;;;22.97;69.37
1832;BME280;1680;48.106;11.708;2023-05-23T11:42:15;95350.78;;;23.08;68.91
1832;BME280;1680;48.106;11.708;2023-05-23T11:44:42;95362.31;;;23.39;67.71
1832;BME280;1680;48.106;11.708;2023-05-23T11:47:10;95356.91;;;23.30;66.99
1832;BME280;1680;48.106;11.708;2023-05-23T11:49:39;95351.63;;;23.69;65.02
1832;BME280;1680;48.106;11.708;2023-05-23T11:52:07;95359.81;;;23.94;63.99
1832;BME280;1680;48.106;11.708;2023-05-23T11:54:35;95387.28;;;24.08;64.23
1832;BME280;1680;48.106;11.708;2023-05-23T11:57:02;95348.09;;;23.82;63.48
1832;BME280;1680;48.106;11.708;2023-05-23T11:59:30;95356.28;;;24.24;63.25
1832;BME280;1680;48.106;11.708;2023-05-23T12:01:57;95377.38;;;24.56;63.17
1832;BME280;1680;48.106;11.708;2023-05-23T12:04:25;95347.38;;;24.54;60.97
1832;BME280;1680;48.106;11.708;2023-05-23T12:06:52;95376.25;;;24.49;61.06
1832;BME280;1680;48.106;11.708;2023-05-23T12:09:20;95390.63;;;24.61;62.40
1832;BME280;1680;48.106;11.708;2023-05-23T12:11:48;95370.28;;;24.60;62.51
1832;BME280;1680;48.106;11.708;2023-05-23T12:14:16;95360.81;;;24.79;58.84
1832;BME280;1680;48.106;11.708;2023-05-23T12:16:45;95385.78;;;25.05;60.14
1832;BME280;1680;48.106;11.708;2023-05-23T12:19:13;95375.50;;;24.99;59.48
1832;BME280;1680;48.106;11.708;2023-05-23T12:21:43;95373.28;;;24.67;62.33
1832;BME280;1680;48.106;11.708;2023-05-23T12:24:15;95375.03;;;24.63;61.93
1832;BME280;1680;48.106;11.708;2023-05-23T12:26:48;95380.03;;;24.48;60.82
1832;BME280;1680;48.106;11.708;2023-05-23T12:29:20;95383.41;;;24.23;62.14
1832;BME280;1680;48.106;11.708;2023-05-23T12:31:49;95377.91;;;24.36;64.01
1832;BME280;1680;48.106;11.708;2023-05-23T12:34:18;95373.59;;;24.57;60.72
1832;BME280;1680;48.106;11.708;2023-05-23T12:36:45;95370.47;;;24.25;62.38
1832;BME280;1680;48.106;11.708;2023-05-23T12:39:14;95374.19;;;24.46;62.72
1832;BME280;1680;48.106;11.708;2023-05-23T12:41:41;95292.34;;;23.92;61.49
1832;BME280;1680;48.106;11.708;2023-05-23T12:44:14;95374.38;;;24.10;62.60
1832;BME280;1680;48.106;11.708;2023-05-23T12:46:42;95379.66;;;23.93;62.49
1832;BME280;1680;48.106;11.708;2023-05-23T12:49:09;95377.19;;;24.05;60.19
1832;BME280;1680;48.106;11.708;2023-05-23T12:51:37;95378.31;;;24.60;58.94
1832;BME280;1680;48.106;11.708;2023-05-23T12:54:04;95341.63;;;24.30;59.21
1832;BME280;1680;48.106;11.708;2023-05-23T12:56:31;95352.31;;;24.13;59.98
1832;BME280;1680;48.106;11.708;2023-05-23T12:58:59;95354.19;;;24.13;61.73
1832;BME280;1680;48.106;11.708;2023-05-23T13:01:29;95384.53;;;24.30;62.69
1832;BME280;1680;48.106;11.708;2023-05-23T13:03:58;95357.47;;;24.01;63.03
1832;BME280;1680;48.106;11.708;2023-05-23T13:06:26;95385.19;;;24.44;61.95
1832;BME280;1680;48.106;11.708;2023-05-23T13:08:53;95390.53;;;24.36;61.41
1832;BME280;1680;48.106;11.708;2023-05-23T13:11:21;95334.66;;;24.21;62.36
1832;BME280;1680;48.106;11.708;2023-05-23T13:13:48;95382.59;;;24.69;59.86
1832;BME280;1680;48.106;11.708;2023-05-23T13:16:17;95365.88;;;24.81;58.96